Terminal Aerodrome Forecast
Issued by NWS Lake Charles, LA

Home | Current Version | Previous Version | Text Only | Print | Product List | Glossary On
Versions: 1 2 3 4 5 6 7 8 9 10 11 12 13 14 15 16 17
998
FTUS44 KLCH 291720
TAFAEX
TAF
KAEX 291720Z 2918/3018 16016G24KT P6SM SCT025 BKN050
     FM300400 15010G18KT P6SM VCTS SCT009 OVC018CB PROB30 3006/3012
      4SM SHRA OVC007
     FM301200 17012G19KT 5SM -RA VCTS SCT010 OVC025CB=

USA.gov is the U.S. government's official web portal to all federal, state and local government web resources and services.